sensor_id;sensor_type;location;lat;lon;timestamp;P1;durP1;ratioP1;P2;durP2;ratioP2
84879;SDS011;75141;51.398;21.154;2024-02-15T00:00:30;16.95;;;7.90;;
84879;SDS011;75141;51.398;21.154;2024-02-15T00:01:51;18.15;;;7.10;;
84879;SDS011;75141;51.398;21.154;2024-02-15T00:02:52;17.80;;;7.63;;
84879;SDS011;75141;51.398;21.154;2024-02-15T00:03:52;18.38;;;7.10;;
84879;SDS011;75141;51.398;21.154;2024-02-15T00:04:53;19.00;;;7.53;;
84879;SDS011;75141;51.398;21.154;2024-02-15T00:05:53;18.33;;;8.20;;
84879;SDS011;75141;51.398;21.154;2024-02-15T00:08:21;12.57;;;6.45;;
84879;SDS011;75141;51.398;21.154;2024-02-15T00:09:22;14.48;;;7.50;;
84879;SDS011;75141;51.398;21.154;2024-02-15T00:10:23;14.30;;;7.38;;
84879;SDS011;75141;51.398;21.154;2024-02-15T00:11:25;14.40;;;6.85;;
84879;SDS011;75141;51.398;21.154;2024-02-15T00:12:25;14.77;;;7.13;;
84879;SDS011;75141;51.398;21.154;2024-02-15T00:13:26;16.55;;;6.45;;
84879;SDS011;75141;51.398;21.154;2024-02-15T00:14:27;19.08;;;8.02;;
84879;SDS011;75141;51.398;21.154;2024-02-15T00:15:32;16.05;;;7.38;;
84879;SDS011;75141;51.398;21.154;2024-02-15T00:16:34;18.20;;;7.80;;
84879;SDS011;75141;51.398;21.154;2024-02-15T00:17:35;14.65;;;6.80;;
84879;SDS011;75141;51.398;21.154;2024-02-15T00:18:36;19.60;;;7.35;;
84879;SDS011;75141;51.398;21.154;2024-02-15T00:19:37;15.05;;;7.63;;
84879;SDS011;75141;51.398;21.154;2024-02-15T00:20:40;15.32;;;7.43;;
84879;SDS011;75141;51.398;21.154;2024-02-15T00:21:42;13.30;;;7.40;;
84879;SDS011;75141;51.398;21.154;2024-02-15T00:22:55;14.98;;;6.93;;
84879;SDS011;75141;51.398;21.154;2024-02-15T00:23:56;15.13;;;7.55;;
84879;SDS011;75141;51.398;21.154;2024-02-15T00:24:57;17.02;;;7.07;;
84879;SDS011;75141;51.398;21.154;2024-02-15T00:25:58;14.65;;;7.28;;
84879;SDS011;75141;51.398;21.154;2024-02-15T00:26:59;14.50;;;7.15;;
84879;SDS011;75141;51.398;21.154;2024-02-15T00:28:00;17.15;;;7.45;;
84879;SDS011;75141;51.398;21.154;2024-02-15T00:29:01;20.50;;;7.95;;
84879;SDS011;75141;51.398;21.154;2024-02-15T00:30:02;15.98;;;6.97;;
84879;SDS011;75141;51.398;21.154;2024-02-15T00:31:03;14.90;;;6.90;;
84879;SDS011;75141;51.398;21.154;2024-02-15T00:32:04;15.48;;;6.57;;
84879;SDS011;75141;51.398;21.154;2024-02-15T00:33:06;15.27;;;7.13;;
84879;SDS011;75141;51.398;21.154;2024-02-15T00:34:08;18.33;;;7.43;;
84879;SDS011;75141;51.398;21.154;2024-02-15T00:35:09;15.73;;;6.82;;
84879;SDS011;75141;51.398;21.154;2024-02-15T00:36:10;12.88;;;6.57;;
84879;SDS011;75141;51.398;21.154;2024-02-15T00:37:10;15.57;;;6.93;;
84879;SDS011;75141;51.398;21.154;2024-02-15T00:38:11;16.83;;;7.05;;
84879;SDS011;75141;51.398;21.154;2024-02-15T00:39:14;14.32;;;7.20;;
84879;SDS011;75141;51.398;21.154;2024-02-15T00:40:18;16.98;;;7.20;;
84879;SDS011;75141;51.398;21.154;2024-02-15T00:41:18;13.18;;;6.90;;
84879;SDS011;75141;51.398;21.154;2024-02-15T00:42:20;15.93;;;7.30;;
84879;SDS011;75141;51.398;21.154;2024-02-15T00:43:21;14.95;;;7.20;;
84879;SDS011;75141;51.398;21.154;2024-02-15T00:44:21;16.17;;;6.65;;
84879;SDS011;75141;51.398;21.154;2024-02-15T00:45:22;16.75;;;7.20;;
84879;SDS011;75141;51.398;21.154;2024-02-15T00:46:22;17.60;;;6.63;;
84879;SDS011;75141;51.398;21.154;2024-02-15T00:47:23;16.35;;;7.47;;
84879;SDS011;75141;51.398;21.154;2024-02-15T00:48:23;16.42;;;6.55;;
84879;SDS011;75141;51.398;21.154;2024-02-15T00:49:29;18.13;;;7.50;;
84879;SDS011;75141;51.398;21.154;2024-02-15T00:50:29;13.00;;;6.60;;
84879;SDS011;75141;51.398;21.154;2024-02-15T00:51:30;16.55;;;7.25;;
84879;SDS011;75141;51.398;21.154;2024-02-15T00:52:30;14.88;;;6.57;;
84879;SDS011;75141;51.398;21.154;2024-02-15T00:53:31;15.52;;;7.32;;
84879;SDS011;75141;51.398;21.154;2024-02-15T00:54:31;14.35;;;6.40;;
84879;SDS011;75141;51.398;21.154;2024-02-15T00:55:32;15.25;;;7.15;;
84879;SDS011;75141;51.398;21.154;2024-02-15T00:56:33;15.25;;;7.18;;
84879;SDS011;75141;51.398;21.154;2024-02-15T00:57:33;17.38;;;8.30;;
84879;SDS011;75141;51.398;21.154;2024-02-15T00:58:34;17.23;;;7.05;;
84879;SDS011;75141;51.398;21.154;2024-02-15T00:59:34;18.65;;;7.88;;
84879;SDS011;75141;51.398;21.154;2024-02-15T01:00:36;16.88;;;6.95;;
84879;SDS011;75141;51.398;21.154;2024-02-15T01:01:36;17.77;;;7.25;;
84879;SDS011;75141;51.398;21.154;2024-02-15T01:02:38;19.65;;;7.53;;
84879;SDS011;75141;51.398;21.154;2024-02-15T01:03:39;14.10;;;6.30;;
84879;SDS011;75141;51.398;21.154;2024-02-15T01:04:39;17.27;;;7.00;;
84879;SDS011;75141;51.398;21.154;2024-02-15T01:05:40;18.83;;;7.18;;
84879;SDS011;75141;51.398;21.154;2024-02-15T01:06:40;17.30;;;8.00;;
84879;SDS011;75141;51.398;21.154;2024-02-15T01:07:42;13.55;;;6.57;;
84879;SDS011;75141;51.398;21.154;2024-02-15T01:08:43;18.42;;;7.05;;
84879;SDS011;75141;51.398;21.154;2024-02-15T01:09:43;17.52;;;7.90;;
84879;SDS011;75141;51.398;21.154;2024-02-15T01:10:45;18.85;;;7.43;;
84879;SDS011;75141;51.398;21.154;2024-02-15T01:11:46;14.63;;;7.20;;
84879;SDS011;75141;51.398;21.154;2024-02-15T01:12:47;20.05;;;7.60;;
84879;SDS011;75141;51.398;21.154;2024-02-15T01:13:49;13.60;;;7.28;;
84879;SDS011;75141;51.398;21.154;2024-02-15T01:14:50;15.30;;;8.13;;
84879;SDS011;75141;51.398;21.154;2024-02-15T01:15:51;17.40;;;7.70;;
84879;SDS011;75141;51.398;21.154;2024-02-15T01:16:52;17.38;;;7.88;;
84879;SDS011;75141;51.398;21.154;2024-02-15T01:17:52;16.63;;;7.40;;
84879;SDS011;75141;51.398;21.154;2024-02-15T01:18:53;17.48;;;8.48;;
84879;SDS011;75141;51.398;21.154;2024-02-15T01:19:54;15.25;;;7.50;;
84879;SDS011;75141;51.398;21.154;2024-02-15T01:20:54;19.05;;;8.15;;
84879;SDS011;75141;51.398;21.154;2024-02-15T01:21:55;19.10;;;7.93;;
84879;SDS011;75141;51.398;21.154;2024-02-15T01:22:56;16.38;;;7.85;;
84879;SDS011;75141;51.398;21.154;2024-02-15T01:23:56;17.10;;;7.72;;
84879;SDS011;75141;51.398;21.154;2024-02-15T01:24:57;16.92;;;7.22;;
84879;SDS011;75141;51.398;21.154;2024-02-15T01:25:58;14.88;;;7.20;;
84879;SDS011;75141;51.398;21.154;2024-02-15T01:26:59;19.70;;;8.13;;
84879;SDS011;75141;51.398;21.154;2024-02-15T01:28:00;17.85;;;7.25;;
84879;SDS011;75141;51.398;21.154;2024-02-15T01:29:02;16.25;;;7.90;;
84879;SDS011;75141;51.398;21.154;2024-02-15T01:30:03;16.98;;;7.25;;
84879;SDS011;75141;51.398;21.154;2024-02-15T01:31:05;15.80;;;7.30;;
84879;SDS011;75141;51.398;21.154;2024-02-15T01:32:07;15.07;;;8.13;;
84879;SDS011;75141;51.398;21.154;2024-02-15T01:33:07;17.75;;;8.18;;
84879;SDS011;75141;51.398;21.154;2024-02-15T01:34:08;16.25;;;7.80;;
84879;SDS011;75141;51.398;21.154;2024-02-15T01:35:09;15.77;;;7.57;;
84879;SDS011;75141;51.398;21.154;2024-02-15T01:36:14;18.42;;;8.45;;
84879;SDS011;75141;51.398;21.154;2024-02-15T01:37:15;17.20;;;7.50;;
84879;SDS011;75141;51.398;21.154;2024-02-15T01:38:16;15.32;;;7.50;;
84879;SDS011;75141;51.398;21.154;2024-02-15T01:39:16;13.20;;;7.35;;
84879;SDS011;75141;51.398;21.154;2024-02-15T01:40:17;16.83;;;8.15;;
84879;SDS011;75141;51.398;21.154;2024-02-15T01:41:18;19.95;;;8.20;;
84879;SDS011;75141;51.398;21.154;2024-02-15T01:42:18;16.75;;;7.63;;
84879;SDS011;75141;51.398;21.154;2024-02-15T01:43:19;20.52;;;8.20;;
84879;SDS011;75141;51.398;21.154;2024-02-15T01:44:20;15.95;;;7.75;;
84879;SDS011;75141;51.398;21.154;2024-02-15T01:45:20;19.42;;;7.60;;
84879;SDS011;75141;51.398;21.154;2024-02-15T01:46:22;18.90;;;7.97;;
84879;SDS011;75141;51.398;21.154;2024-02-15T01:47:22;18.48;;;8.23;;
84879;SDS011;75141;51.398;21.154;2024-02-15T01:48:23;16.70;;;7.57;;
84879;SDS011;75141;51.398;21.154;2024-02-15T01:49:24;20.00;;;8.35;;
84879;SDS011;75141;51.398;21.154;2024-02-15T01:50:25;16.38;;;7.35;;
84879;SDS011;75141;51.398;21.154;2024-02-15T01:51:26;19.40;;;7.80;;
84879;SDS011;75141;51.398;21.154;2024-02-15T01:52:27;20.65;;;8.57;;
84879;SDS011;75141;51.398;21.154;2024-02-15T01:53:28;17.13;;;8.35;;
84879;SDS011;75141;51.398;21.154;2024-02-15T01:54:30;22.67;;;8.02;;
84879;SDS011;75141;51.398;21.154;2024-02-15T01:55:31;19.23;;;8.55;;
84879;SDS011;75141;51.398;21.154;2024-02-15T01:56:33;18.35;;;8.20;;
84879;SDS011;75141;51.398;21.154;2024-02-15T01:57:35;20.90;;;8.73;;
84879;SDS011;75141;51.398;21.154;2024-02-15T01:58:36;17.05;;;7.82;;
84879;SDS011;75141;51.398;21.154;2024-02-15T01:59:36;15.02;;;7.57;;
84879;SDS011;75141;51.398;21.154;2024-02-15T02:00:37;20.67;;;8.30;;
84879;SDS011;75141;51.398;21.154;2024-02-15T02:01:39;17.65;;;8.52;;
84879;SDS011;75141;51.398;21.154;2024-02-15T02:02:41;15.55;;;8.02;;
84879;SDS011;75141;51.398;21.154;2024-02-15T02:03:42;14.07;;;7.22;;
84879;SDS011;75141;51.398;21.154;2024-02-15T02:04:43;16.02;;;7.82;;
84879;SDS011;75141;51.398;21.154;2024-02-15T02:05:43;21.50;;;9.32;;
84879;SDS011;75141;51.398;21.154;2024-02-15T02:06:43;15.30;;;7.57;;
84879;SDS011;75141;51.398;21.154;2024-02-15T02:07:44;15.95;;;7.45;;
84879;SDS011;75141;51.398;21.154;2024-02-15T02:08:45;16.90;;;8.55;;
84879;SDS011;75141;51.398;21.154;2024-02-15T02:09:46;19.40;;;7.93;;
84879;SDS011;75141;51.398;21.154;2024-02-15T02:10:46;17.50;;;7.85;;
84879;SDS011;75141;51.398;21.154;2024-02-15T02:11:47;18.90;;;8.15;;
84879;SDS011;75141;51.398;21.154;2024-02-15T02:12:48;16.25;;;8.82;;
84879;SDS011;75141;51.398;21.154;2024-02-15T02:13:49;15.32;;;8.07;;
84879;SDS011;75141;51.398;21.154;2024-02-15T02:14:50;20.95;;;9.05;;
84879;SDS011;75141;51.398;21.154;2024-02-15T02:15:51;15.57;;;8.13;;
84879;SDS011;75141;51.398;21.154;2024-02-15T02:16:52;19.58;;;8.57;;
84879;SDS011;75141;51.398;21.154;2024-02-15T02:17:53;21.70;;;8.55;;
84879;SDS011;75141;51.398;21.154;2024-02-15T02:18:57;22.02;;;9.02;;
84879;SDS011;75141;51.398;21.154;2024-02-15T02:19:58;23.60;;;8.93;;
84879;SDS011;75141;51.398;21.154;2024-02-15T02:20:59;18.40;;;9.25;;
84879;SDS011;75141;51.398;21.154;2024-02-15T02:21:59;22.83;;;9.40;;
84879;SDS011;75141;51.398;21.154;2024-02-15T02:23:03;21.42;;;8.77;;
84879;SDS011;75141;51.398;21.154;2024-02-15T02:24:11;20.77;;;9.18;;
84879;SDS011;75141;51.398;21.154;2024-02-15T02:25:13;17.95;;;8.52;;
84879;SDS011;75141;51.398;21.154;2024-02-15T02:26:13;16.38;;;8.40;;
84879;SDS011;75141;51.398;21.154;2024-02-15T02:27:15;20.45;;;9.18;;
84879;SDS011;75141;51.398;21.154;2024-02-15T02:28:15;18.10;;;8.95;;
84879;SDS011;75141;51.398;21.154;2024-02-15T02:29:17;19.77;;;8.98;;
84879;SDS011;75141;51.398;21.154;2024-02-15T02:30:18;18.02;;;8.85;;
84879;SDS011;75141;51.398;21.154;2024-02-15T02:31:22;22.20;;;9.13;;
84879;SDS011;75141;51.398;21.154;2024-02-15T02:32:22;18.02;;;8.63;;
84879;SDS011;75141;51.398;21.154;2024-02-15T02:33:23;19.88;;;8.60;;
84879;SDS011;75141;51.398;21.154;2024-02-15T02:34:28;19.30;;;8.50;;
84879;SDS011;75141;51.398;21.154;2024-02-15T02:35:29;19.00;;;8.88;;
84879;SDS011;75141;51.398;21.154;2024-02-15T02:36:30;16.88;;;8.40;;
84879;SDS011;75141;51.398;21.154;2024-02-15T02:37:31;18.75;;;8.25;;
84879;SDS011;75141;51.398;21.154;2024-02-15T02:38:31;16.73;;;8.18;;
84879;SDS011;75141;51.398;21.154;2024-02-15T02:39:32;20.85;;;9.18;;
84879;SDS011;75141;51.398;21.154;2024-02-15T02:40:32;19.88;;;9.05;;
84879;SDS011;75141;51.398;21.154;2024-02-15T02:41:34;20.25;;;9.35;;
84879;SDS011;75141;51.398;21.154;2024-02-15T02:42:48;16.13;;;8.18;;
84879;SDS011;75141;51.398;21.154;2024-02-15T02:43:48;16.27;;;8.32;;
84879;SDS011;75141;51.398;21.154;2024-02-15T02:44:49;21.08;;;9.02;;
84879;SDS011;75141;51.398;21.154;2024-02-15T02:45:50;17.73;;;8.57;;
84879;SDS011;75141;51.398;21.154;2024-02-15T02:46:50;17.55;;;8.65;;
84879;SDS011;75141;51.398;21.154;2024-02-15T02:47:51;15.35;;;8.18;;
84879;SDS011;75141;51.398;21.154;2024-02-15T02:48:52;18.17;;;7.90;;
84879;SDS011;75141;51.398;21.154;2024-02-15T02:49:52;19.33;;;8.77;;
84879;SDS011;75141;51.398;21.154;2024-02-15T02:50:53;15.85;;;7.53;;
84879;SDS011;75141;51.398;21.154;2024-02-15T02:51:53;22.25;;;8.55;;
84879;SDS011;75141;51.398;21.154;2024-02-15T02:52:54;20.33;;;8.48;;
84879;SDS011;75141;51.398;21.154;2024-02-15T02:53:55;17.52;;;8.07;;
84879;SDS011;75141;51.398;21.154;2024-02-15T02:54:55;16.15;;;8.55;;
84879;SDS011;75141;51.398;21.154;2024-02-15T02:55:56;17.73;;;9.02;;
84879;SDS011;75141;51.398;21.154;2024-02-15T02:56:57;18.20;;;9.07;;
84879;SDS011;75141;51.398;21.154;2024-02-15T02:57:57;18.20;;;8.00;;
84879;SDS011;75141;51.398;21.154;2024-02-15T02:58:58;16.10;;;8.50;;
84879;SDS011;75141;51.398;21.154;2024-02-15T02:59:59;17.88;;;8.77;;
84879;SDS011;75141;51.398;21.154;2024-02-15T03:00:59;17.88;;;8.38;;
84879;SDS011;75141;51.398;21.154;2024-02-15T03:02:06;16.40;;;8.05;;
84879;SDS011;75141;51.398;21.154;2024-02-15T03:03:08;15.85;;;7.88;;
84879;SDS011;75141;51.398;21.154;2024-02-15T03:04:09;18.77;;;8.45;;
84879;SDS011;75141;51.398;21.154;2024-02-15T03:06:13;17.38;;;8.07;;
84879;SDS011;75141;51.398;21.154;2024-02-15T03:07:14;17.52;;;8.45;;
84879;SDS011;75141;51.398;21.154;2024-02-15T03:08:16;17.35;;;8.30;;
84879;SDS011;75141;51.398;21.154;2024-02-15T03:09:19;15.77;;;8.10;;
84879;SDS011;75141;51.398;21.154;2024-02-15T03:10:21;18.98;;;8.10;;
84879;SDS011;75141;51.398;21.154;2024-02-15T03:11:22;20.45;;;8.85;;
84879;SDS011;75141;51.398;21.154;2024-02-15T03:12:22;21.00;;;8.85;;
84879;SDS011;75141;51.398;21.154;2024-02-15T03:13:23;15.57;;;7.95;;
84879;SDS011;75141;51.398;21.154;2024-02-15T03:14:24;19.30;;;8.10;;
84879;SDS011;75141;51.398;21.154;2024-02-15T03:15:25;15.82;;;7.45;;
84879;SDS011;75141;51.398;21.154;2024-02-15T03:16:26;15.50;;;8.10;;
84879;SDS011;75141;51.398;21.154;2024-02-15T03:17:27;17.83;;;7.97;;
84879;SDS011;75141;51.398;21.154;2024-02-15T03:18:28;19.52;;;7.57;;
84879;SDS011;75141;51.398;21.154;2024-02-15T03:19:29;16.10;;;7.90;;
84879;SDS011;75141;51.398;21.154;2024-02-15T03:20:31;17.90;;;8.80;;
84879;SDS011;75141;51.398;21.154;2024-02-15T03:21:31;17.73;;;8.35;;
84879;SDS011;75141;51.398;21.154;2024-02-15T03:22:32;20.98;;;9.65;;
84879;SDS011;75141;51.398;21.154;2024-02-15T03:23:34;20.48;;;8.60;;
84879;SDS011;75141;51.398;21.154;2024-02-15T03:24:35;20.13;;;8.35;;
84879;SDS011;75141;51.398;21.154;2024-02-15T03:25:35;17.92;;;8.27;;
84879;SDS011;75141;51.398;21.154;2024-02-15T03:26:37;19.67;;;8.13;;
84879;SDS011;75141;51.398;21.154;2024-02-15T03:27:38;18.73;;;9.07;;
84879;SDS011;75141;51.398;21.154;2024-02-15T03:28:39;19.88;;;8.50;;
84879;SDS011;75141;51.398;21.154;2024-02-15T03:29:39;17.17;;;8.85;;
84879;SDS011;75141;51.398;21.154;2024-02-15T03:30:40;19.90;;;8.30;;
84879;SDS011;75141;51.398;21.154;2024-02-15T03:31:41;13.75;;;7.45;;
84879;SDS011;75141;51.398;21.154;2024-02-15T03:32:41;20.85;;;8.90;;
84879;SDS011;75141;51.398;21.154;2024-02-15T03:33:42;19.83;;;9.32;;
84879;SDS011;75141;51.398;21.154;2024-02-15T03:34:42;19.48;;;8.35;;
84879;SDS011;75141;51.398;21.154;2024-02-15T03:35:43;19.20;;;8.70;;
84879;SDS011;75141;51.398;21.154;2024-02-15T03:36:43;17.75;;;8.90;;
84879;SDS011;75141;51.398;21.154;2024-02-15T03:37:44;18.80;;;8.60;;
84879;SDS011;75141;51.398;21.154;2024-02-15T03:38:45;17.48;;;8.50;;
84879;SDS011;75141;51.398;21.154;2024-02-15T03:39:47;17.33;;;8.55;;
84879;SDS011;75141;51.398;21.154;2024-02-15T03:40:47;16.85;;;7.88;;
84879;SDS011;75141;51.398;21.154;2024-02-15T03:41:48;19.10;;;8.05;;
84879;SDS011;75141;51.398;21.154;2024-02-15T03:42:48;23.48;;;9.25;;
84879;SDS011;75141;51.398;21.154;2024-02-15T03:43:52;18.77;;;8.90;;
84879;SDS011;75141;51.398;21.154;2024-02-15T03:44:53;20.98;;;8.52;;
84879;SDS011;75141;51.398;21.154;2024-02-15T03:45:54;19.27;;;8.38;;
84879;SDS011;75141;51.398;21.154;2024-02-15T03:46:55;19.88;;;8.25;;
84879;SDS011;75141;51.398;21.154;2024-02-15T03:47:56;20.38;;;8.82;;
84879;SDS011;75141;51.398;21.154;2024-02-15T03:48:56;19.65;;;8.98;;
84879;SDS011;75141;51.398;21.154;2024-02-15T03:49:57;21.30;;;9.02;;
84879;SDS011;75141;51.398;21.154;2024-02-15T03:50:58;16.17;;;8.20;;
84879;SDS011;75141;51.398;21.154;2024-02-15T03:51:59;19.67;;;8.48;;
84879;SDS011;75141;51.398;21.154;2024-02-15T03:53:02;19.45;;;8.25;;
84879;SDS011;75141;51.398;21.154;2024-02-15T03:54:03;17.83;;;8.63;;
84879;SDS011;75141;51.398;21.154;2024-02-15T03:55:04;18.77;;;8.63;;
84879;SDS011;75141;51.398;21.154;2024-02-15T03:56:05;20.67;;;8.73;;
84879;SDS011;75141;51.398;21.154;2024-02-15T03:57:07;21.20;;;8.75;;
84879;SDS011;75141;51.398;21.154;2024-02-15T03:58:07;18.95;;;8.38;;
84879;SDS011;75141;51.398;21.154;2024-02-15T03:59:09;17.00;;;8.45;;
84879;SDS011;75141;51.398;21.154;2024-02-15T04:00:09;19.38;;;8.68;;
84879;SDS011;75141;51.398;21.154;2024-02-15T04:01:14;21.38;;;9.73;;
84879;SDS011;75141;51.398;21.154;2024-02-15T04:02:15;17.80;;;8.63;;
84879;SDS011;75141;51.398;21.154;2024-02-15T04:03:16;21.27;;;8.93;;
84879;SDS011;75141;51.398;21.154;2024-02-15T04:04:17;18.75;;;9.25;;
84879;SDS011;75141;51.398;21.154;2024-02-15T04:05:18;17.88;;;8.55;;
84879;SDS011;75141;51.398;21.154;2024-02-15T04:06:19;19.20;;;8.45;;
84879;SDS011;75141;51.398;21.154;2024-02-15T04:07:21;21.55;;;8.75;;
84879;SDS011;75141;51.398;21.154;2024-02-15T04:08:22;19.08;;;8.63;;
84879;SDS011;75141;51.398;21.154;2024-02-15T04:09:22;20.40;;;8.98;;
84879;SDS011;75141;51.398;21.154;2024-02-15T04:10:23;18.25;;;8.10;;
84879;SDS011;75141;51.398;21.154;2024-02-15T04:11:23;18.25;;;9.13;;
84879;SDS011;75141;51.398;21.154;2024-02-15T04:12:24;20.27;;;9.15;;
84879;SDS011;75141;51.398;21.154;2024-02-15T04:13:27;16.92;;;8.15;;
84879;SDS011;75141;51.398;21.154;2024-02-15T04:14:27;15.98;;;8.32;;
84879;SDS011;75141;51.398;21.154;2024-02-15T04:15:28;19.05;;;8.85;;
84879;SDS011;75141;51.398;21.154;2024-02-15T04:16:29;24.35;;;9.07;;
84879;SDS011;75141;51.398;21.154;2024-02-15T04:17:30;15.93;;;8.25;;
84879;SDS011;75141;51.398;21.154;2024-02-15T04:18:32;23.83;;;9.23;;
84879;SDS011;75141;51.398;21.154;2024-02-15T04:19:33;21.05;;;8.25;;
84879;SDS011;75141;51.398;21.154;2024-02-15T04:20:34;20.77;;;9.32;;
84879;SDS011;75141;51.398;21.154;2024-02-15T04:21:35;19.98;;;9.15;;
84879;SDS011;75141;51.398;21.154;2024-02-15T04:22:35;15.38;;;7.65;;
84879;SDS011;75141;51.398;21.154;2024-02-15T04:23:39;20.13;;;8.50;;
84879;SDS011;75141;51.398;21.154;2024-02-15T04:24:42;20.55;;;8.77;;
84879;SDS011;75141;51.398;21.154;2024-02-15T04:25:42;20.98;;;8.95;;
84879;SDS011;75141;51.398;21.154;2024-02-15T04:26:44;20.15;;;8.70;;
84879;SDS011;75141;51.398;21.154;2024-02-15T04:27:47;23.13;;;9.00;;
84879;SDS011;75141;51.398;21.154;2024-02-15T04:28:49;17.17;;;8.77;;
84879;SDS011;75141;51.398;21.154;2024-02-15T04:29:52;17.90;;;9.05;;
84879;SDS011;75141;51.398;21.154;2024-02-15T04:30:53;22.65;;;9.95;;
84879;SDS011;75141;51.398;21.154;2024-02-15T04:31:53;19.85;;;8.70;;
84879;SDS011;75141;51.398;21.154;2024-02-15T04:32:55;17.45;;;8.52;;
84879;SDS011;75141;51.398;21.154;2024-02-15T04:33:56;18.48;;;9.00;;
84879;SDS011;75141;51.398;21.154;2024-02-15T04:34:57;21.50;;;10.15;;
84879;SDS011;75141;51.398;21.154;2024-02-15T04:35:57;17.25;;;8.95;;
84879;SDS011;75141;51.398;21.154;2024-02-15T04:36:59;19.05;;;8.88;;
84879;SDS011;75141;51.398;21.154;2024-02-15T04:38:00;19.38;;;8.57;;
84879;SDS011;75141;51.398;21.154;2024-02-15T04:39:00;17.00;;;8.88;;
84879;SDS011;75141;51.398;21.154;2024-02-15T04:40:04;20.35;;;8.85;;
84879;SDS011;75141;51.398;21.154;2024-02-15T04:41:10;19.92;;;9.55;;
84879;SDS011;75141;51.398;21.154;2024-02-15T04:42:11;23.65;;;8.93;;
84879;SDS011;75141;51.398;21.154;2024-02-15T04:43:12;22.98;;;9.65;;
84879;SDS011;75141;51.398;21.154;2024-02-15T04:44:13;22.52;;;9.93;;
84879;SDS011;75141;51.398;21.154;2024-02-15T04:45:14;21.52;;;9.50;;
84879;SDS011;75141;51.398;21.154;2024-02-15T04:46:15;17.77;;;9.88;;
84879;SDS011;75141;51.398;21.154;2024-02-15T04:47:16;21.00;;;9.13;;
84879;SDS011;75141;51.398;21.154;2024-02-15T04:48:16;21.00;;;9.88;;
84879;SDS011;75141;51.398;21.154;2024-02-15T04:49:19;23.10;;;10.30;;
84879;SDS011;75141;51.398;21.154;2024-02-15T04:50:20;19.60;;;9.35;;
84879;SDS011;75141;51.398;21.154;2024-02-15T04:51:21;21.10;;;9.90;;
84879;SDS011;75141;51.398;21.154;2024-02-15T04:52:21;17.95;;;9.10;;
84879;SDS011;75141;51.398;21.154;2024-02-15T04:53:24;17.98;;;8.95;;
84879;SDS011;75141;51.398;21.154;2024-02-15T04:54:25;19.35;;;10.55;;
84879;SDS011;75141;51.398;21.154;2024-02-15T04:55:26;22.65;;;10.02;;
84879;SDS011;75141;51.398;21.154;2024-02-15T04:56:27;24.15;;;9.85;;
84879;SDS011;75141;51.398;21.154;2024-02-15T04:57:28;22.08;;;9.88;;
84879;SDS011;75141;51.398;21.154;2024-02-15T04:58:28;22.25;;;9.45;;
84879;SDS011;75141;51.398;21.154;2024-02-15T04:59:29;20.67;;;10.00;;
84879;SDS011;75141;51.398;21.154;2024-02-15T05:00:30;19.83;;;9.43;;
84879;SDS011;75141;51.398;21.154;2024-02-15T05:01:31;25.50;;;10.20;;
84879;SDS011;75141;51.398;21.154;2024-02-15T05:02:33;18.85;;;8.80;;
84879;SDS011;75141;51.398;21.154;2024-02-15T05:03:36;20.67;;;9.65;;
84879;SDS011;75141;51.398;21.154;2024-02-15T05:04:37;21.38;;;10.07;;
84879;SDS011;75141;51.398;21.154;2024-02-15T05:05:38;18.92;;;9.00;;
84879;SDS011;75141;51.398;21.154;2024-02-15T05:06:39;18.95;;;9.43;;
84879;SDS011;75141;51.398;21.154;2024-02-15T05:07:41;20.13;;;9.55;;
84879;SDS011;75141;51.398;21.154;2024-02-15T05:08:41;22.65;;;9.23;;
84879;SDS011;75141;51.398;21.154;2024-02-15T05:09:45;19.63;;;9.60;;
84879;SDS011;75141;51.398;21.154;2024-02-15T05:10:45;22.20;;;9.85;;
84879;SDS011;75141;51.398;21.154;2024-02-15T05:11:46;21.70;;;9.60;;
84879;SDS011;75141;51.398;21.154;2024-02-15T05:12:47;21.38;;;9.52;;
84879;SDS011;75141;51.398;21.154;2024-02-15T05:13:48;18.30;;;9.35;;
84879;SDS011;75141;51.398;21.154;2024-02-15T05:14:52;22.05;;;9.82;;
84879;SDS011;75141;51.398;21.154;2024-02-15T05:15:53;20.38;;;10.30;;
84879;SDS011;75141;51.398;21.154;2024-02-15T05:16:53;21.05;;;10.27;;
84879;SDS011;75141;51.398;21.154;2024-02-15T05:17:54;21.73;;;9.77;;
84879;SDS011;75141;51.398;21.154;2024-02-15T05:18:55;25.42;;;10.27;;
84879;SDS011;75141;51.398;21.154;2024-02-15T05:19:56;26.58;;;10.40;;
84879;SDS011;75141;51.398;21.154;2024-02-15T05:20:59;32.95;;;11.82;;
84879;SDS011;75141;51.398;21.154;2024-02-15T05:22:02;24.52;;;11.40;;
84879;SDS011;75141;51.398;21.154;2024-02-15T05:23:05;25.08;;;11.10;;
84879;SDS011;75141;51.398;21.154;2024-02-15T05:24:06;26.58;;;12.20;;
84879;SDS011;75141;51.398;21.154;2024-02-15T05:25:06;33.15;;;12.90;;
84879;SDS011;75141;51.398;21.154;2024-02-15T05:26:08;29.63;;;11.38;;
84879;SDS011;75141;51.398;21.154;2024-02-15T05:27:09;30.83;;;12.10;;
84879;SDS011;75141;51.398;21.154;2024-02-15T05:28:09;29.58;;;12.18;;
84879;SDS011;75141;51.398;21.154;2024-02-15T05:29:10;29.10;;;11.52;;
84879;SDS011;75141;51.398;21.154;2024-02-15T05:30:11;33.60;;;12.48;;
84879;SDS011;75141;51.398;21.154;2024-02-15T05:31:17;27.13;;;12.07;;
84879;SDS011;75141;51.398;21.154;2024-02-15T05:32:18;27.35;;;11.73;;
84879;SDS011;75141;51.398;21.154;2024-02-15T05:33:20;28.70;;;11.48;;
84879;SDS011;75141;51.398;21.154;2024-02-15T05:34:21;23.20;;;11.05;;
84879;SDS011;75141;51.398;21.154;2024-02-15T05:35:22;28.77;;;12.07;;
84879;SDS011;75141;51.398;21.154;2024-02-15T05:36:22;29.88;;;11.77;;
84879;SDS011;75141;51.398;21.154;2024-02-15T05:37:25;27.33;;;12.27;;
84879;SDS011;75141;51.398;21.154;2024-02-15T05:38:26;22.63;;;11.05;;
84879;SDS011;75141;51.398;21.154;2024-02-15T05:39:29;29.10;;;11.60;;
84879;SDS011;75141;51.398;21.154;2024-02-15T05:40:29;27.27;;;11.93;;
84879;SDS011;75141;51.398;21.154;2024-02-15T05:41:30;23.85;;;10.98;;
84879;SDS011;75141;51.398;21.154;2024-02-15T05:42:33;22.52;;;11.75;;
84879;SDS011;75141;51.398;21.154;2024-02-15T05:43:33;26.30;;;11.85;;
84879;SDS011;75141;51.398;21.154;2024-02-15T05:44:35;22.45;;;10.27;;
84879;SDS011;75141;51.398;21.154;2024-02-15T05:45:36;20.83;;;10.75;;
84879;SDS011;75141;51.398;21.154;2024-02-15T05:46:40;20.73;;;10.38;;
84879;SDS011;75141;51.398;21.154;2024-02-15T05:47:41;24.83;;;10.40;;
84879;SDS011;75141;51.398;21.154;2024-02-15T05:48:41;25.10;;;11.50;;
84879;SDS011;75141;51.398;21.154;2024-02-15T05:49:42;18.42;;;10.15;;
84879;SDS011;75141;51.398;21.154;2024-02-15T05:50:43;28.00;;;11.32;;
84879;SDS011;75141;51.398;21.154;2024-02-15T05:51:44;23.25;;;10.93;;
84879;SDS011;75141;51.398;21.154;2024-02-15T05:52:45;22.67;;;11.32;;
84879;SDS011;75141;51.398;21.154;2024-02-15T05:53:46;26.25;;;10.75;;
84879;SDS011;75141;51.398;21.154;2024-02-15T05:54:47;24.38;;;10.65;;
84879;SDS011;75141;51.398;21.154;2024-02-15T05:55:49;25.60;;;11.70;;
84879;SDS011;75141;51.398;21.154;2024-02-15T05:56:50;24.83;;;10.65;;
84879;SDS011;75141;51.398;21.154;2024-02-15T05:57:52;21.95;;;10.57;;
84879;SDS011;75141;51.398;21.154;2024-02-15T05:58:53;23.35;;;11.52;;
84879;SDS011;75141;51.398;21.154;2024-02-15T05:59:54;23.80;;;10.13;;